createdAt,value
2019-04-30T00:06:38.019Z,80.16
2019-04-30T00:08:57.573Z,80.31
2019-04-30T00:11:27.475Z,80.67
2019-04-30T00:13:58.981Z,80.67
2019-04-30T00:16:31.000Z,80.63
2019-04-30T00:19:00.911Z,81.56
2019-04-30T00:21:28.926Z,81.56
2019-04-30T00:24:04.936Z,81.25
2019-04-30T00:26:30.867Z,81.26
2019-04-30T00:28:59.780Z,81.04
2019-04-30T00:31:28.338Z,81.33
2019-04-30T00:34:01.029Z,81.44
2019-04-30T00:36:34.220Z,82.33
2019-04-30T00:39:00.339Z,82.22
2019-04-30T00:41:30.309Z,81.97
2019-04-30T00:43:59.037Z,82.35
2019-04-30T00:46:29.447Z,82.71
2019-04-30T00:49:09.258Z,82.42
2019-04-30T00:51:30.175Z,82.16
2019-04-30T00:53:58.727Z,82.16
2019-04-30T00:56:28.858Z,82.17
2019-04-30T00:59:02.687Z,82.17
2019-04-30T01:01:39.215Z,82.48
2019-04-30T01:04:07.391Z,82.07
2019-04-30T01:06:35.967Z,82.47
2019-04-30T01:09:08.538Z,82.47
2019-04-30T01:11:35.599Z,83.11
2019-04-30T01:14:04.299Z,83.11
2019-04-30T01:16:33.265Z,82.38
2019-04-30T01:19:05.692Z,82.38
2019-04-30T01:21:32.703Z,82.14
2019-04-30T01:24:03.437Z,81.77
2019-04-30T01:26:32.539Z,81.89
2019-04-30T01:29:02.149Z,81.89
2019-04-30T01:31:31.721Z,82.57
2019-04-30T01:34:05.188Z,82.31
2019-04-30T01:36:31.659Z,82.41
2019-04-30T01:39:00.213Z,82.67
2019-04-30T01:41:31.421Z,82.16
2019-04-30T01:43:59.236Z,82.16
2019-04-30T01:46:29.421Z,82.13
2019-04-30T01:48:59.818Z,82.33
2019-04-30T01:51:28.659Z,82.33
2019-04-30T01:53:59.454Z,82.62
2019-04-30T01:56:32.480Z,82.77
2019-04-30T01:59:19.326Z,82.76
2019-04-30T02:01:49.781Z,82.76
2019-04-30T02:04:19.602Z,82.47
2019-04-30T02:06:49.377Z,82.41
2019-04-30T02:09:18.926Z,83.64
2019-04-30T02:11:48.835Z,83.44
2019-04-30T02:14:18.957Z,83.44
2019-04-30T02:16:49.426Z,84.23
2019-04-30T02:19:18.866Z,83.31
2019-04-30T02:21:48.674Z,84.57
2019-04-30T02:24:19.185Z,84.70
2019-04-30T02:26:48.478Z,84.70
2019-04-30T02:29:18.994Z,84.50
2019-04-30T02:31:50.087Z,84.20
2019-04-30T02:34:22.166Z,83.58
2019-04-30T02:36:54.632Z,85.35
2019-04-30T02:39:23.216Z,85.35
2019-04-30T02:41:53.208Z,85.21
2019-04-30T02:44:23.897Z,84.52
2019-04-30T02:46:54.530Z,84.20
2019-04-30T02:49:24.219Z,85.36
2019-04-30T02:51:56.395Z,85.36
2019-04-30T02:54:29.706Z,86.30
2019-04-30T02:57:03.281Z,86.26
2019-04-30T02:59:31.886Z,85.58
2019-04-30T03:02:00.483Z,86.10
2019-04-30T03:04:29.367Z,86.60
2019-04-30T03:06:59.953Z,86.60
2019-04-30T03:09:29.675Z,86.96
2019-04-30T03:12:00.130Z,87.14
2019-04-30T03:14:30.119Z,86.83
2019-04-30T03:17:10.232Z,86.57
2019-04-30T03:19:40.952Z,87.48
2019-04-30T03:22:11.233Z,87.97
2019-04-30T03:24:42.929Z,88.69
2019-04-30T03:27:10.565Z,89.53
2019-04-30T03:29:40.563Z,90.02
2019-04-30T03:32:13.361Z,90.14
2019-04-30T03:34:41.899Z,90.04
2019-04-30T03:37:10.427Z,89.76
2019-04-30T03:39:40.023Z,89.84
2019-04-30T03:42:09.976Z,89.26
2019-04-30T03:44:39.984Z,89.28
2019-04-30T03:47:10.903Z,89.60
2019-04-30T03:49:40.232Z,90.49
2019-04-30T03:52:12.606Z,90.52
2019-04-30T03:54:40.802Z,90.00
2019-04-30T03:57:10.796Z,89.73
2019-04-30T03:59:40.069Z,90.43
2019-04-30T04:02:13.202Z,89.86
2019-04-30T04:04:52.546Z,89.23
2019-04-30T04:07:34.981Z,89.78
2019-04-30T04:10:10.098Z,89.42
2019-04-30T04:12:39.494Z,88.47
2019-04-30T04:15:10.518Z,88.54
2019-04-30T04:17:39.771Z,87.97
2019-04-30T04:20:10.668Z,87.29
2019-04-30T04:22:40.307Z,86.91
2019-04-30T04:25:12.610Z,86.92
2019-04-30T04:27:39.565Z,86.62
2019-04-30T04:30:10.573Z,87.02
2019-04-30T04:32:40.698Z,87.02
2019-04-30T04:35:12.192Z,87.31
2019-04-30T04:37:39.669Z,86.29
2019-04-30T04:40:09.318Z,86.29
2019-04-30T04:42:39.579Z,85.92
2019-04-30T04:45:09.879Z,85.59
2019-04-30T04:47:40.116Z,84.77
2019-04-30T04:50:10.497Z,85.06
2019-04-30T04:52:39.729Z,85.06
2019-04-30T04:55:10.074Z,84.46
2019-04-30T04:57:40.002Z,84.22
2019-04-30T05:00:10.523Z,84.05
2019-04-30T05:02:44.022Z,83.95
2019-04-30T05:05:12.734Z,83.81
2019-04-30T05:07:41.277Z,83.29
2019-04-30T05:10:10.069Z,82.91
2019-04-30T05:12:39.880Z,83.73
2019-04-30T05:15:09.568Z,82.65
2019-04-30T05:17:39.826Z,82.83
2019-04-30T05:20:09.988Z,82.18
2019-04-30T05:22:39.126Z,80.94
2019-04-30T05:25:08.962Z,80.94
2019-04-30T05:27:39.257Z,81.54
2019-04-30T05:30:09.692Z,80.90
2019-04-30T05:32:39.272Z,80.23
2019-04-30T05:35:09.513Z,80.44
2019-04-30T05:37:38.584Z,79.76
2019-04-30T05:40:09.199Z,79.76
2019-04-30T05:42:38.731Z,79.39
2019-04-30T05:45:09.450Z,79.15
2019-04-30T05:47:38.935Z,79.28
2019-04-30T05:50:08.992Z,77.62
2019-04-30T05:52:39.831Z,77.62
2019-04-30T05:55:08.690Z,77.21
2019-04-30T05:57:43.369Z,77.21
2019-04-30T06:00:09.928Z,77.44
2019-04-30T06:02:39.874Z,75.78
2019-04-30T06:05:08.994Z,75.98
2019-04-30T06:07:39.322Z,75.98
2019-04-30T06:10:22.197Z,74.81
2019-04-30T06:12:55.897Z,74.41
2019-04-30T06:15:35.238Z,74.62
2019-04-30T06:18:12.897Z,73.40
2019-04-30T06:20:34.296Z,71.35
2019-04-30T06:23:02.920Z,71.35
2019-04-30T06:25:41.213Z,71.84
2019-04-30T06:28:02.076Z,71.03
2019-04-30T06:30:31.165Z,70.93
2019-04-30T06:33:00.473Z,70.09
2019-04-30T06:35:29.518Z,68.90
2019-04-30T06:38:00.848Z,68.81
2019-04-30T06:40:29.759Z,69.31
2019-04-30T06:43:00.789Z,68.63
2019-04-30T06:45:29.966Z,69.47
2019-04-30T06:48:00.449Z,68.56
2019-04-30T06:50:29.336Z,68.09
2019-04-30T06:53:01.640Z,68.04
2019-04-30T06:55:30.919Z,67.60
2019-04-30T06:58:11.444Z,66.42
2019-04-30T07:00:40.187Z,66.12
2019-04-30T07:03:09.596Z,66.94
2019-04-30T07:05:39.049Z,65.36
2019-04-30T07:08:38.888Z,66.56
2019-04-30T07:11:20.281Z,65.43
2019-04-30T07:13:52.138Z,65.38
2019-04-30T07:16:21.079Z,64.78
2019-04-30T07:18:49.629Z,65.19
2019-04-30T07:21:19.855Z,64.26
2019-04-30T07:23:49.033Z,63.86
2019-04-30T07:26:19.681Z,64.46
2019-04-30T07:28:52.758Z,62.55
2019-04-30T07:31:19.219Z,61.96
2019-04-30T07:33:51.451Z,61.96
2019-04-30T07:36:19.538Z,64.33
2019-04-30T07:38:54.507Z,60.96
2019-04-30T07:41:19.077Z,60.79
2019-04-30T07:43:49.375Z,60.08
2019-04-30T07:46:20.037Z,59.17
2019-04-30T07:48:50.139Z,60.39
2019-04-30T07:51:21.038Z,59.52
2019-04-30T07:53:49.930Z,58.95
2019-04-30T07:56:25.614Z,58.54
2019-04-30T07:58:50.465Z,58.76
2019-04-30T08:01:19.735Z,58.28
2019-04-30T08:03:50.577Z,58.29
2019-04-30T08:06:22.381Z,56.95
2019-04-30T08:08:51.055Z,59.09
2019-04-30T08:11:25.650Z,56.46
2019-04-30T08:13:51.713Z,55.90
2019-04-30T08:16:20.425Z,56.32
2019-04-30T08:18:49.288Z,55.97
2019-04-30T08:21:18.999Z,56.47
2019-04-30T08:23:48.936Z,56.23
2019-04-30T08:26:18.775Z,55.15
2019-04-30T08:28:48.804Z,55.50
2019-04-30T08:31:19.611Z,54.50
2019-04-30T08:33:49.056Z,54.78
2019-04-30T08:36:19.561Z,54.13
2019-04-30T08:38:49.504Z,53.87
2019-04-30T08:41:19.313Z,53.58
2019-04-30T08:43:49.634Z,52.97
2019-04-30T08:46:19.002Z,52.54
2019-04-30T08:48:53.039Z,53.40
2019-04-30T08:51:19.029Z,52.07
2019-04-30T08:53:48.647Z,52.29
2019-04-30T08:56:19.577Z,50.42
2019-04-30T08:58:49.107Z,51.25
2019-04-30T09:01:19.589Z,49.81
2019-04-30T09:03:50.912Z,49.52
2019-04-30T09:06:20.313Z,49.56
2019-04-30T09:08:49.535Z,49.80
2019-04-30T09:11:25.223Z,49.84
2019-04-30T09:13:48.912Z,48.24
2019-04-30T09:16:19.412Z,49.16
2019-04-30T09:18:49.434Z,48.34
2019-04-30T09:21:18.749Z,48.39
2019-04-30T09:23:52.356Z,48.57
2019-04-30T09:26:18.744Z,46.29
2019-04-30T09:28:49.412Z,46.69
2019-04-30T09:31:19.731Z,46.34
2019-04-30T09:33:49.254Z,46.40
2019-04-30T09:36:20.560Z,46.94
2019-04-30T09:38:48.681Z,47.21
2019-04-30T09:41:19.107Z,46.76
2019-04-30T09:43:49.392Z,44.96
2019-04-30T09:46:26.331Z,45.27
2019-04-30T09:48:50.372Z,46.01
2019-04-30T09:51:20.210Z,44.17
2019-04-30T09:53:56.751Z,45.34
2019-04-30T09:56:19.403Z,43.98
2019-04-30T09:58:49.265Z,43.59
2019-04-30T10:01:17.953Z,43.43
2019-04-30T10:03:47.074Z,44.04
2019-04-30T10:06:16.601Z,44.94
2019-04-30T10:08:48.414Z,43.58
2019-04-30T10:11:17.214Z,43.95
2019-04-30T10:13:45.837Z,42.70
2019-04-30T10:16:22.191Z,43.38
2019-04-30T10:18:50.742Z,43.25
2019-04-30T10:21:19.340Z,41.47
2019-04-30T10:23:49.903Z,43.00
2019-04-30T10:26:19.322Z,42.75
2019-04-30T10:28:50.058Z,41.69
2019-04-30T10:31:20.787Z,41.08
2019-04-30T10:33:49.145Z,40.96
2019-04-30T10:36:19.414Z,41.43
2019-04-30T10:38:49.389Z,41.68
2019-04-30T10:41:18.799Z,39.45
2019-04-30T10:43:49.271Z,40.85
2019-04-30T10:46:17.950Z,39.89
2019-04-30T10:48:46.520Z,40.79
2019-04-30T10:51:15.374Z,40.46
2019-04-30T10:53:44.403Z,40.00
2019-04-30T10:56:13.036Z,39.43
2019-04-30T10:58:41.590Z,39.26
2019-04-30T11:01:10.495Z,39.45
2019-04-30T11:03:39.218Z,39.36
2019-04-30T11:06:08.696Z,39.38
2019-04-30T11:08:37.408Z,39.82
2019-04-30T11:11:06.145Z,38.15
2019-04-30T11:13:34.700Z,39.28
2019-04-30T11:16:12.612Z,38.28
2019-04-30T11:18:34.131Z,38.03
2019-04-30T11:21:03.094Z,39.14
2019-04-30T11:23:32.074Z,37.03
2019-04-30T11:26:01.618Z,38.96
2019-04-30T11:28:30.960Z,38.40
2019-04-30T11:31:07.226Z,37.66
2019-04-30T11:33:36.313Z,36.81
2019-04-30T11:36:05.218Z,37.69
2019-04-30T11:38:33.801Z,36.42
2019-04-30T11:41:02.420Z,34.96
2019-04-30T11:43:30.972Z,35.67
2019-04-30T11:46:20.660Z,36.58
2019-04-30T11:48:49.376Z,34.33
2019-04-30T11:51:19.407Z,35.43
2019-04-30T11:53:49.000Z,35.87
2019-04-30T11:56:17.769Z,35.69
2019-04-30T11:58:46.404Z,35.54
2019-04-30T12:01:26.180Z,35.32
2019-04-30T12:03:56.096Z,33.25
2019-04-30T12:06:26.029Z,35.13
2019-04-30T12:08:56.232Z,35.03
2019-04-30T12:11:26.577Z,33.83
2019-04-30T12:13:55.196Z,34.68
2019-04-30T12:16:23.750Z,34.95
2019-04-30T12:18:52.313Z,33.81
2019-04-30T12:21:20.930Z,33.27
2019-04-30T12:23:49.555Z,34.21
2019-04-30T12:26:19.072Z,32.84
2019-04-30T12:28:47.802Z,33.36
2019-04-30T12:31:18.606Z,34.19
2019-04-30T12:33:47.183Z,33.77
2019-04-30T12:36:15.914Z,33.42
2019-04-30T12:38:44.526Z,33.05
2019-04-30T12:41:13.153Z,34.10
2019-04-30T12:43:41.775Z,32.74
2019-04-30T12:46:10.321Z,34.35
2019-04-30T12:48:40.521Z,33.46
2019-04-30T12:51:13.584Z,32.67
2019-04-30T12:54:00.217Z,33.44
2019-04-30T12:56:46.646Z,32.71
2019-04-30T12:59:15.606Z,34.15
2019-04-30T13:01:44.278Z,32.38
2019-04-30T13:04:12.831Z,31.93
2019-04-30T13:06:41.893Z,32.65
2019-04-30T13:09:11.805Z,31.68
2019-04-30T13:11:41.819Z,33.34
2019-04-30T13:14:11.491Z,32.67
2019-04-30T13:16:40.441Z,33.05
2019-04-30T13:25:50.685Z,31.18
2019-04-30T13:28:18.832Z,32.20
2019-04-30T13:30:49.335Z,30.64
2019-04-30T13:33:20.477Z,31.74
2019-04-30T13:35:49.107Z,31.72
2019-04-30T13:38:45.103Z,30.45
2019-04-30T13:41:06.543Z,30.02
2019-04-30T13:43:54.893Z,29.98
2019-04-30T13:46:23.910Z,29.11
2019-04-30T13:48:52.522Z,30.22
2019-04-30T13:51:21.080Z,30.67
2019-04-30T13:53:49.728Z,29.46
2019-04-30T13:56:20.199Z,30.20
2019-04-30T13:58:48.906Z,30.33
2019-04-30T14:01:18.858Z,30.65
2019-04-30T14:04:02.987Z,30.63
2019-04-30T14:06:35.839Z,29.57
2019-04-30T14:09:11.012Z,28.66
2019-04-30T14:11:39.626Z,28.36
2019-04-30T14:14:08.336Z,27.42
2019-04-30T14:16:36.889Z,25.77
2019-04-30T14:19:05.628Z,26.68
2019-04-30T14:21:35.399Z,26.72
2019-04-30T14:24:04.193Z,27.01
2019-04-30T14:26:32.746Z,26.49
2019-04-30T14:29:01.460Z,27.63
2019-04-30T14:31:30.170Z,26.85
2019-04-30T14:33:59.315Z,26.41
2019-04-30T14:36:29.628Z,26.72
2019-04-30T14:39:13.644Z,28.65
2019-04-30T14:41:32.623Z,26.54
2019-04-30T14:44:03.640Z,28.25
2019-04-30T14:46:34.661Z,27.33
2019-04-30T14:49:22.292Z,27.68
2019-04-30T14:51:51.829Z,26.38
2019-04-30T14:54:22.018Z,28.66
2019-04-30T14:56:54.694Z,27.96
2019-04-30T14:59:41.126Z,28.41
2019-04-30T15:02:23.667Z,28.00
2019-04-30T15:04:52.207Z,28.41
2019-04-30T15:07:21.200Z,29.78
2019-04-30T15:09:50.221Z,29.28
2019-04-30T15:12:18.831Z,29.16
2019-04-30T15:14:49.308Z,29.58
2019-04-30T15:17:17.733Z,26.93
2019-04-30T15:19:46.311Z,27.31
2019-04-30T15:22:14.923Z,25.40
2019-04-30T15:24:43.479Z,27.13
2019-04-30T15:27:12.548Z,27.61
2019-04-30T15:29:41.482Z,26.26
2019-04-30T15:32:10.100Z,26.47
2019-04-30T15:34:42.185Z,25.45
2019-04-30T15:37:18.720Z,26.21
2019-04-30T15:39:40.318Z,24.34
2019-04-30T15:42:10.603Z,26.16
2019-04-30T15:44:42.662Z,24.99
2019-04-30T15:47:10.043Z,25.03
2019-04-30T15:49:38.603Z,25.83
2019-04-30T15:52:10.770Z,25.61
2019-04-30T15:54:39.202Z,24.02
2019-04-30T15:57:08.907Z,25.15
2019-04-30T15:59:39.511Z,24.20
2019-04-30T16:02:10.389Z,26.31
2019-04-30T16:04:40.574Z,25.91
2019-04-30T16:07:09.212Z,29.22
2019-04-30T16:09:58.543Z,27.34
2019-04-30T16:12:30.662Z,29.03
2019-04-30T16:14:59.202Z,28.04
2019-04-30T16:17:29.217Z,29.75
2019-04-30T16:19:59.593Z,28.83
2019-04-30T16:22:31.507Z,28.70
2019-04-30T16:25:00.670Z,28.74
2019-04-30T16:27:29.317Z,29.20
2019-04-30T16:29:59.610Z,29.27
2019-04-30T16:32:30.974Z,28.31
2019-04-30T16:34:59.584Z,30.05
2019-04-30T16:37:31.244Z,30.59
2019-04-30T16:39:59.884Z,29.37
2019-04-30T16:42:29.079Z,29.44
2019-04-30T16:45:00.567Z,29.71
2019-04-30T16:47:29.732Z,29.45
2019-04-30T16:49:58.951Z,29.42
2019-04-30T16:52:29.449Z,28.64
2019-04-30T16:55:01.264Z,29.99
2019-04-30T16:57:30.365Z,30.79
2019-04-30T16:59:59.420Z,29.45
2019-04-30T17:02:31.243Z,28.09
2019-04-30T17:05:01.504Z,27.53
2019-04-30T17:07:34.517Z,28.97
2019-04-30T17:10:04.878Z,29.81
2019-04-30T17:12:35.132Z,26.54
2019-04-30T17:15:25.680Z,32.25
2019-04-30T17:17:54.267Z,32.97
2019-04-30T17:20:22.979Z,28.49
2019-04-30T17:22:51.589Z,27.11
2019-04-30T17:25:20.220Z,26.43
2019-04-30T17:27:49.245Z,26.91
2019-04-30T17:30:20.359Z,27.78
2019-04-30T17:32:49.892Z,31.27
2019-04-30T17:35:19.129Z,30.54
2019-04-30T17:37:47.893Z,30.71
2019-04-30T17:40:19.081Z,34.90
2019-04-30T17:42:47.555Z,33.71
2019-04-30T17:45:16.814Z,35.45
2019-04-30T17:47:45.428Z,35.15
2019-04-30T17:50:14.406Z,35.92
2019-04-30T17:52:43.068Z,36.98
2019-04-30T17:55:12.058Z,37.46
2019-04-30T17:57:40.693Z,34.27
2019-04-30T18:00:18.968Z,36.83
2019-04-30T18:02:42.740Z,37.20
2019-04-30T18:05:11.569Z,37.27
2019-04-30T18:07:40.273Z,37.88
2019-04-30T18:10:11.038Z,36.87
2019-04-30T18:12:39.760Z,37.59
2019-04-30T18:15:13.300Z,37.60
2019-04-30T18:17:43.552Z,39.00
2019-04-30T18:20:19.168Z,37.97
2019-04-30T18:23:05.572Z,38.71
2019-04-30T18:25:38.899Z,39.02
2019-04-30T18:28:09.159Z,39.54
2019-04-30T18:30:39.718Z,40.94
2019-04-30T18:33:09.909Z,39.93
2019-04-30T18:35:38.932Z,41.21
2019-04-30T18:38:09.627Z,42.29
2019-04-30T18:40:39.683Z,41.80
2019-04-30T18:43:08.592Z,43.28
2019-04-30T18:45:39.584Z,43.10
2019-04-30T18:48:09.752Z,43.10
2019-04-30T18:50:38.415Z,45.60
2019-04-30T18:53:08.777Z,44.42
2019-04-30T18:55:37.481Z,43.74
2019-04-30T18:58:06.395Z,43.85
2019-04-30T19:00:45.257Z,44.74
2019-04-30T19:03:14.287Z,45.19
2019-04-30T19:05:44.615Z,47.75
2019-04-30T19:08:31.560Z,47.24
2019-04-30T19:11:19.835Z,49.51
2019-04-30T19:13:51.115Z,48.06
2019-04-30T19:16:30.792Z,47.93
2019-04-30T19:19:12.692Z,47.77
2019-04-30T19:21:40.999Z,46.15
2019-04-30T19:24:09.707Z,46.99
2019-04-30T19:26:38.943Z,49.01
2019-04-30T19:29:07.915Z,48.96
2019-04-30T19:31:36.867Z,49.73
2019-04-30T19:34:05.579Z,49.04
2019-04-30T19:36:37.608Z,49.15
2019-04-30T19:39:08.688Z,49.13
2019-04-30T19:41:38.653Z,49.87
2019-04-30T19:44:07.299Z,52.56
2019-04-30T19:46:36.229Z,54.41
2019-04-30T19:49:04.942Z,55.45
2019-04-30T19:51:33.560Z,56.40
2019-04-30T19:54:02.180Z,56.27
2019-04-30T19:56:32.846Z,53.40
2019-04-30T19:59:05.234Z,53.84
2019-04-30T20:01:32.106Z,53.93
2019-04-30T20:04:00.726Z,54.84
2019-04-30T20:06:29.635Z,57.59
2019-04-30T20:09:01.107Z,57.88
2019-04-30T20:11:29.730Z,57.64
2019-04-30T20:13:58.279Z,59.23
2019-04-30T20:16:26.935Z,59.35
2019-04-30T20:18:59.208Z,59.37
2019-04-30T20:21:45.383Z,60.44
2019-04-30T20:24:00.464Z,62.34
2019-04-30T20:26:29.484Z,59.41
2019-04-30T20:29:01.390Z,58.38
2019-04-30T20:31:30.001Z,59.86
2019-04-30T20:33:59.132Z,62.27
2019-04-30T20:36:28.960Z,62.96
2019-04-30T20:39:02.375Z,61.97
2019-04-30T20:41:32.627Z,62.64
2019-04-30T20:44:01.337Z,63.43
2019-04-30T20:46:34.946Z,62.98
2019-04-30T20:49:00.298Z,63.65
2019-04-30T20:51:29.132Z,63.82
2019-04-30T20:53:59.479Z,65.36
2019-04-30T20:56:30.967Z,65.29
2019-04-30T20:59:05.231Z,63.50
2019-04-30T21:01:30.038Z,64.15
2019-04-30T21:03:58.641Z,66.29
2019-04-30T21:06:29.780Z,66.01
2019-04-30T21:08:58.531Z,64.27
2019-04-30T21:11:28.789Z,63.39
2019-04-30T21:13:59.099Z,62.53
2019-04-30T21:16:27.869Z,63.10
2019-04-30T21:18:56.577Z,65.10
2019-04-30T21:21:28.766Z,66.96
2019-04-30T21:24:00.565Z,67.49
2019-04-30T21:26:29.185Z,69.70
2019-04-30T21:29:10.406Z,69.06
2019-04-30T21:31:35.114Z,68.79
2019-04-30T21:34:23.798Z,68.44
2019-04-30T21:36:52.610Z,67.62
2019-04-30T21:39:21.212Z,66.26
2019-04-30T21:41:49.825Z,65.92
2019-04-30T21:44:18.440Z,64.61
2019-04-30T21:46:51.008Z,65.29
2019-04-30T21:49:23.217Z,63.94
2019-04-30T21:51:51.791Z,63.31
2019-04-30T21:54:20.402Z,62.67
2019-04-30T21:56:49.044Z,66.18
2019-04-30T21:59:24.184Z,66.09
2019-04-30T22:01:48.148Z,64.65
2019-04-30T22:04:16.963Z,66.47
2019-04-30T22:06:46.713Z,65.80
2019-04-30T22:09:15.600Z,66.44
2019-04-30T22:11:44.260Z,67.02
2019-04-30T22:14:14.050Z,63.87
2019-04-30T22:16:42.940Z,63.61
2019-04-30T22:19:19.946Z,64.56
2019-04-30T22:21:50.326Z,65.37
2019-04-30T22:30:26.804Z,66.39
2019-04-30T22:33:04.739Z,67.04
2019-04-30T22:47:50.392Z,70.26
2019-04-30T22:50:19.107Z,70.89
2019-04-30T22:52:52.515Z,70.97
2019-04-30T22:55:22.576Z,68.03
2019-04-30T22:57:51.180Z,70.53
2019-04-30T23:00:24.132Z,70.33
2019-04-30T23:03:03.356Z,71.03
2019-04-30T23:05:31.969Z,70.93
2019-04-30T23:08:02.483Z,70.04
2019-04-30T23:13:53.990Z,69.76
2019-04-30T23:16:22.539Z,69.70
2019-04-30T23:21:56.678Z,69.32
2019-04-30T23:24:41.321Z,67.09
2019-04-30T23:27:18.954Z,66.10
2019-04-30T23:33:00.516Z,67.89
2019-04-30T23:38:29.290Z,69.41
2019-04-30T23:41:02.820Z,68.64
2019-04-30T23:43:34.735Z,69.56
2019-04-30T23:46:06.834Z,69.51
2019-04-30T23:48:39.556Z,68.43
2019-04-30T23:51:14.911Z,67.26
2019-04-30T23:53:43.527Z,65.80
2019-04-30T23:56:12.754Z,64.11
2019-04-30T23:58:41.627Z,63.16
